sensor_id;sensor_type;location;lat;lon;timestamp;P1;durP1;ratioP1;P2;durP2;ratioP2
68076;SDS011;54866;53.458;14.540;2022-08-19T00:02:09;9.10;;;8.30;;
68076;SDS011;54866;53.458;14.540;2022-08-19T00:04:39;9.40;;;8.50;;
68076;SDS011;54866;53.458;14.540;2022-08-19T00:07:09;8.90;;;8.00;;
68076;SDS011;54866;53.458;14.540;2022-08-19T00:09:39;11.00;;;9.60;;
68076;SDS011;54866;53.458;14.540;2022-08-19T00:14:48;10.90;;;9.90;;
68076;SDS011;54866;53.458;14.540;2022-08-19T00:17:20;10.60;;;9.50;;
68076;SDS011;54866;53.458;14.540;2022-08-19T00:19:52;8.80;;;8.00;;
68076;SDS011;54866;53.458;14.540;2022-08-19T00:22:22;9.90;;;8.90;;
68076;SDS011;54866;53.458;14.540;2022-08-19T00:24:53;9.10;;;8.30;;
68076;SDS011;54866;53.458;14.540;2022-08-19T00:27:23;10.70;;;9.80;;
68076;SDS011;54866;53.458;14.540;2022-08-19T00:29:53;9.60;;;8.70;;
68076;SDS011;54866;53.458;14.540;2022-08-19T00:32:22;10.30;;;9.30;;
68076;SDS011;54866;53.458;14.540;2022-08-19T00:34:52;8.90;;;8.10;;
68076;SDS011;54866;53.458;14.540;2022-08-19T00:37:23;9.50;;;8.20;;
68076;SDS011;54866;53.458;14.540;2022-08-19T00:39:54;9.00;;;8.10;;
68076;SDS011;54866;53.458;14.540;2022-08-19T00:42:24;9.30;;;8.50;;
68076;SDS011;54866;53.458;14.540;2022-08-19T00:44:55;9.40;;;8.60;;
68076;SDS011;54866;53.458;14.540;2022-08-19T00:47:26;10.60;;;9.20;;
68076;SDS011;54866;53.458;14.540;2022-08-19T00:49:56;11.80;;;9.30;;
68076;SDS011;54866;53.458;14.540;2022-08-19T00:52:28;10.80;;;9.80;;
68076;SDS011;54866;53.458;14.540;2022-08-19T00:55:01;10.10;;;9.20;;
68076;SDS011;54866;53.458;14.540;2022-08-19T00:57:35;11.00;;;10.00;;
68076;SDS011;54866;53.458;14.540;2022-08-19T01:00:11;11.80;;;10.00;;
68076;SDS011;54866;53.458;14.540;2022-08-19T01:02:43;11.30;;;10.20;;
68076;SDS011;54866;53.458;14.540;2022-08-19T01:05:16;12.80;;;11.70;;
68076;SDS011;54866;53.458;14.540;2022-08-19T01:07:48;12.50;;;11.40;;
68076;SDS011;54866;53.458;14.540;2022-08-19T01:10:21;13.10;;;11.80;;
68076;SDS011;54866;53.458;14.540;2022-08-19T01:12:55;14.10;;;12.70;;
68076;SDS011;54866;53.458;14.540;2022-08-19T01:15:27;14.80;;;13.30;;
68076;SDS011;54866;53.458;14.540;2022-08-19T01:18:01;13.80;;;12.60;;
68076;SDS011;54866;53.458;14.540;2022-08-19T01:20:36;13.50;;;12.10;;
68076;SDS011;54866;53.458;14.540;2022-08-19T01:23:07;14.40;;;13.10;;
68076;SDS011;54866;53.458;14.540;2022-08-19T01:25:39;14.90;;;13.40;;
68076;SDS011;54866;53.458;14.540;2022-08-19T01:28:15;14.70;;;13.40;;
68076;SDS011;54866;53.458;14.540;2022-08-19T01:30:49;14.80;;;13.60;;
68076;SDS011;54866;53.458;14.540;2022-08-19T01:33:20;13.80;;;12.50;;
68076;SDS011;54866;53.458;14.540;2022-08-19T01:35:50;14.40;;;13.10;;
68076;SDS011;54866;53.458;14.540;2022-08-19T01:38:22;14.70;;;13.20;;
68076;SDS011;54866;53.458;14.540;2022-08-19T01:40:53;14.00;;;12.70;;
68076;SDS011;54866;53.458;14.540;2022-08-19T01:43:23;14.90;;;13.50;;
68076;SDS011;54866;53.458;14.540;2022-08-19T01:45:53;13.00;;;11.90;;
68076;SDS011;54866;53.458;14.540;2022-08-19T01:48:23;13.80;;;12.50;;
68076;SDS011;54866;53.458;14.540;2022-08-19T01:50:53;13.90;;;12.70;;
68076;SDS011;54866;53.458;14.540;2022-08-19T01:53:23;13.10;;;11.90;;
68076;SDS011;54866;53.458;14.540;2022-08-19T01:55:53;12.50;;;11.30;;
68076;SDS011;54866;53.458;14.540;2022-08-19T01:58:24;12.00;;;10.90;;
68076;SDS011;54866;53.458;14.540;2022-08-19T02:00:58;12.90;;;11.70;;
68076;SDS011;54866;53.458;14.540;2022-08-19T02:03:28;12.50;;;11.30;;
68076;SDS011;54866;53.458;14.540;2022-08-19T02:05:58;11.70;;;10.70;;
68076;SDS011;54866;53.458;14.540;2022-08-19T02:08:29;12.30;;;11.20;;
68076;SDS011;54866;53.458;14.540;2022-08-19T02:11:01;11.10;;;10.10;;
68076;SDS011;54866;53.458;14.540;2022-08-19T02:13:32;11.40;;;10.30;;
68076;SDS011;54866;53.458;14.540;2022-08-19T02:16:03;11.10;;;10.10;;
68076;SDS011;54866;53.458;14.540;2022-08-19T02:18:34;11.50;;;10.40;;
68076;SDS011;54866;53.458;14.540;2022-08-19T02:21:03;11.90;;;10.80;;
68076;SDS011;54866;53.458;14.540;2022-08-19T02:23:33;10.80;;;9.70;;
68076;SDS011;54866;53.458;14.540;2022-08-19T02:26:03;11.30;;;10.30;;
68076;SDS011;54866;53.458;14.540;2022-08-19T02:28:33;11.70;;;10.60;;
68076;SDS011;54866;53.458;14.540;2022-08-19T02:31:07;11.60;;;10.40;;
68076;SDS011;54866;53.458;14.540;2022-08-19T02:33:39;12.30;;;11.10;;
68076;SDS011;54866;53.458;14.540;2022-08-19T02:36:10;11.80;;;10.70;;
68076;SDS011;54866;53.458;14.540;2022-08-19T02:38:42;11.00;;;9.90;;
68076;SDS011;54866;53.458;14.540;2022-08-19T02:41:14;10.40;;;9.50;;
68076;SDS011;54866;53.458;14.540;2022-08-19T02:43:47;9.70;;;8.70;;
68076;SDS011;54866;53.458;14.540;2022-08-19T02:46:18;9.20;;;8.40;;
68076;SDS011;54866;53.458;14.540;2022-08-19T02:48:50;10.10;;;8.80;;
68076;SDS011;54866;53.458;14.540;2022-08-19T02:51:22;10.60;;;9.60;;
68076;SDS011;54866;53.458;14.540;2022-08-19T02:53:54;10.10;;;9.10;;
68076;SDS011;54866;53.458;14.540;2022-08-19T02:56:25;10.50;;;9.50;;
68076;SDS011;54866;53.458;14.540;2022-08-19T02:58:55;9.50;;;8.70;;
68076;SDS011;54866;53.458;14.540;2022-08-19T03:01:26;9.20;;;8.10;;
68076;SDS011;54866;53.458;14.540;2022-08-19T03:03:58;10.40;;;9.30;;
68076;SDS011;54866;53.458;14.540;2022-08-19T03:06:29;10.40;;;9.40;;
68076;SDS011;54866;53.458;14.540;2022-08-19T03:08:59;11.20;;;10.10;;
68076;SDS011;54866;53.458;14.540;2022-08-19T03:11:30;10.20;;;9.20;;
68076;SDS011;54866;53.458;14.540;2022-08-19T03:14:01;11.20;;;10.10;;
68076;SDS011;54866;53.458;14.540;2022-08-19T03:16:34;11.00;;;10.00;;
68076;SDS011;54866;53.458;14.540;2022-08-19T03:19:08;12.30;;;11.00;;
68076;SDS011;54866;53.458;14.540;2022-08-19T03:21:39;11.50;;;10.40;;
68076;SDS011;54866;53.458;14.540;2022-08-19T03:24:11;11.60;;;10.50;;
68076;SDS011;54866;53.458;14.540;2022-08-19T03:26:44;12.00;;;10.80;;
68076;SDS011;54866;53.458;14.540;2022-08-19T03:29:16;11.30;;;10.20;;
68076;SDS011;54866;53.458;14.540;2022-08-19T03:31:47;13.30;;;10.60;;
68076;SDS011;54866;53.458;14.540;2022-08-19T03:34:19;13.10;;;11.80;;
68076;SDS011;54866;53.458;14.540;2022-08-19T03:36:53;12.90;;;11.70;;
68076;SDS011;54866;53.458;14.540;2022-08-19T03:39:24;11.90;;;10.80;;
68076;SDS011;54866;53.458;14.540;2022-08-19T03:41:55;11.60;;;10.50;;
68076;SDS011;54866;53.458;14.540;2022-08-19T03:44:26;12.60;;;11.30;;
68076;SDS011;54866;53.458;14.540;2022-08-19T03:46:57;12.10;;;10.90;;
68076;SDS011;54866;53.458;14.540;2022-08-19T03:49:29;12.00;;;10.70;;
68076;SDS011;54866;53.458;14.540;2022-08-19T03:52:02;13.00;;;11.80;;
68076;SDS011;54866;53.458;14.540;2022-08-19T03:54:34;12.90;;;11.70;;
68076;SDS011;54866;53.458;14.540;2022-08-19T03:57:05;12.40;;;11.20;;
68076;SDS011;54866;53.458;14.540;2022-08-19T03:59:36;13.10;;;11.90;;
68076;SDS011;54866;53.458;14.540;2022-08-19T04:02:08;13.10;;;11.90;;
68076;SDS011;54866;53.458;14.540;2022-08-19T04:04:41;12.80;;;11.60;;
68076;SDS011;54866;53.458;14.540;2022-08-19T04:07:13;13.90;;;12.70;;
68076;SDS011;54866;53.458;14.540;2022-08-19T04:09:44;13.00;;;11.80;;
68076;SDS011;54866;53.458;14.540;2022-08-19T04:12:14;13.00;;;11.70;;
68076;SDS011;54866;53.458;14.540;2022-08-19T04:14:48;13.00;;;11.90;;
68076;SDS011;54866;53.458;14.540;2022-08-19T04:17:18;14.30;;;13.00;;
68076;SDS011;54866;53.458;14.540;2022-08-19T04:19:49;13.70;;;12.50;;
68076;SDS011;54866;53.458;14.540;2022-08-19T04:22:18;15.40;;;13.90;;
68076;SDS011;54866;53.458;14.540;2022-08-19T04:24:48;13.30;;;12.20;;
68076;SDS011;54866;53.458;14.540;2022-08-19T04:27:18;14.20;;;12.80;;
68076;SDS011;54866;53.458;14.540;2022-08-19T04:29:48;12.10;;;11.10;;
68076;SDS011;54866;53.458;14.540;2022-08-19T04:32:18;13.50;;;12.40;;
68076;SDS011;54866;53.458;14.540;2022-08-19T04:34:49;13.60;;;12.30;;
68076;SDS011;54866;53.458;14.540;2022-08-19T04:37:19;15.20;;;13.70;;
68076;SDS011;54866;53.458;14.540;2022-08-19T04:39:49;16.00;;;14.50;;
68076;SDS011;54866;53.458;14.540;2022-08-19T04:42:37;15.40;;;14.10;;
68076;SDS011;54866;53.458;14.540;2022-08-19T04:45:09;15.40;;;13.80;;
68076;SDS011;54866;53.458;14.540;2022-08-19T04:47:42;17.00;;;15.40;;
68076;SDS011;54866;53.458;14.540;2022-08-19T04:50:12;16.60;;;14.90;;
68076;SDS011;54866;53.458;14.540;2022-08-19T04:52:42;16.60;;;15.00;;
68076;SDS011;54866;53.458;14.540;2022-08-19T04:55:12;15.40;;;14.00;;
68076;SDS011;54866;53.458;14.540;2022-08-19T04:57:42;14.30;;;13.00;;
68076;SDS011;54866;53.458;14.540;2022-08-19T05:00:12;14.10;;;12.90;;
68076;SDS011;54866;53.458;14.540;2022-08-19T05:02:43;15.60;;;14.00;;
68076;SDS011;54866;53.458;14.540;2022-08-19T05:05:13;15.20;;;13.90;;
68076;SDS011;54866;53.458;14.540;2022-08-19T05:07:43;15.50;;;14.00;;
68076;SDS011;54866;53.458;14.540;2022-08-19T05:10:12;15.00;;;13.60;;
68076;SDS011;54866;53.458;14.540;2022-08-19T05:12:42;15.20;;;13.80;;
68076;SDS011;54866;53.458;14.540;2022-08-19T05:15:13;14.20;;;12.80;;
68076;SDS011;54866;53.458;14.540;2022-08-19T05:17:43;15.30;;;13.80;;
68076;SDS011;54866;53.458;14.540;2022-08-19T05:20:33;13.40;;;12.10;;
68076;SDS011;54866;53.458;14.540;2022-08-19T05:23:23;14.20;;;12.80;;
68076;SDS011;54866;53.458;14.540;2022-08-19T05:25:52;13.40;;;12.20;;
68076;SDS011;54866;53.458;14.540;2022-08-19T05:28:22;13.70;;;12.40;;
68076;SDS011;54866;53.458;14.540;2022-08-19T05:30:53;12.80;;;11.60;;
68076;SDS011;54866;53.458;14.540;2022-08-19T05:33:23;13.50;;;12.30;;
68076;SDS011;54866;53.458;14.540;2022-08-19T05:35:52;11.60;;;10.60;;
68076;SDS011;54866;53.458;14.540;2022-08-19T05:38:23;12.00;;;10.90;;
68076;SDS011;54866;53.458;14.540;2022-08-19T05:40:54;12.10;;;11.10;;
68076;SDS011;54866;53.458;14.540;2022-08-19T05:43:24;12.60;;;11.50;;
68076;SDS011;54866;53.458;14.540;2022-08-19T05:45:54;11.20;;;10.20;;
68076;SDS011;54866;53.458;14.540;2022-08-19T05:48:24;12.90;;;11.80;;
68076;SDS011;54866;53.458;14.540;2022-08-19T05:50:55;12.50;;;11.30;;
68076;SDS011;54866;53.458;14.540;2022-08-19T05:53:25;11.80;;;10.80;;
68076;SDS011;54866;53.458;14.540;2022-08-19T05:55:54;11.60;;;10.40;;
68076;SDS011;54866;53.458;14.540;2022-08-19T05:58:24;12.70;;;11.40;;
68076;SDS011;54866;53.458;14.540;2022-08-19T06:00:54;11.30;;;10.20;;
68076;SDS011;54866;53.458;14.540;2022-08-19T06:03:24;12.80;;;11.70;;
68076;SDS011;54866;53.458;14.540;2022-08-19T06:05:54;12.30;;;11.10;;
68076;SDS011;54866;53.458;14.540;2022-08-19T06:08:25;11.90;;;10.70;;
68076;SDS011;54866;53.458;14.540;2022-08-19T06:10:55;11.80;;;10.60;;
68076;SDS011;54866;53.458;14.540;2022-08-19T06:13:25;12.60;;;11.50;;
68076;SDS011;54866;53.458;14.540;2022-08-19T06:15:56;12.70;;;11.60;;
68076;SDS011;54866;53.458;14.540;2022-08-19T06:18:26;10.80;;;9.90;;
68076;SDS011;54866;53.458;14.540;2022-08-19T06:20:56;11.30;;;10.30;;
68076;SDS011;54866;53.458;14.540;2022-08-19T06:23:26;12.30;;;11.20;;
68076;SDS011;54866;53.458;14.540;2022-08-19T06:25:57;12.40;;;11.30;;
68076;SDS011;54866;53.458;14.540;2022-08-19T06:28:27;12.80;;;11.60;;
68076;SDS011;54866;53.458;14.540;2022-08-19T06:30:57;13.00;;;11.90;;
68076;SDS011;54866;53.458;14.540;2022-08-19T06:33:28;12.30;;;11.20;;
68076;SDS011;54866;53.458;14.540;2022-08-19T06:35:58;12.60;;;11.50;;
68076;SDS011;54866;53.458;14.540;2022-08-19T06:38:28;12.70;;;11.60;;
68076;SDS011;54866;53.458;14.540;2022-08-19T06:41:01;13.20;;;12.00;;
68076;SDS011;54866;53.458;14.540;2022-08-19T06:43:32;13.00;;;11.80;;
68076;SDS011;54866;53.458;14.540;2022-08-19T06:46:02;13.40;;;12.00;;
68076;SDS011;54866;53.458;14.540;2022-08-19T06:48:38;13.00;;;11.90;;
68076;SDS011;54866;53.458;14.540;2022-08-19T06:51:07;12.80;;;11.70;;
68076;SDS011;54866;53.458;14.540;2022-08-19T06:53:37;13.80;;;12.50;;
68076;SDS011;54866;53.458;14.540;2022-08-19T06:56:08;14.70;;;13.30;;
68076;SDS011;54866;53.458;14.540;2022-08-19T06:58:37;13.20;;;11.90;;
68076;SDS011;54866;53.458;14.540;2022-08-19T07:01:08;13.50;;;12.30;;
68076;SDS011;54866;53.458;14.540;2022-08-19T07:03:38;13.20;;;12.00;;
68076;SDS011;54866;53.458;14.540;2022-08-19T07:06:09;13.70;;;12.40;;
68076;SDS011;54866;53.458;14.540;2022-08-19T07:08:44;12.50;;;11.30;;
68076;SDS011;54866;53.458;14.540;2022-08-19T07:11:16;13.40;;;12.30;;
68076;SDS011;54866;53.458;14.540;2022-08-19T07:13:48;11.40;;;10.40;;
68076;SDS011;54866;53.458;14.540;2022-08-19T07:16:18;11.90;;;10.80;;
68076;SDS011;54866;53.458;14.540;2022-08-19T07:18:49;12.90;;;11.70;;
68076;SDS011;54866;53.458;14.540;2022-08-19T07:21:21;11.70;;;10.70;;
68076;SDS011;54866;53.458;14.540;2022-08-19T07:23:54;13.50;;;12.20;;
68076;SDS011;54866;53.458;14.540;2022-08-19T07:26:25;11.80;;;10.80;;
68076;SDS011;54866;53.458;14.540;2022-08-19T07:28:56;12.90;;;11.80;;
68076;SDS011;54866;53.458;14.540;2022-08-19T07:31:28;11.10;;;10.10;;
68076;SDS011;54866;53.458;14.540;2022-08-19T07:33:58;13.00;;;11.90;;
68076;SDS011;54866;53.458;14.540;2022-08-19T07:36:28;11.70;;;10.60;;
68076;SDS011;54866;53.458;14.540;2022-08-19T07:38:59;11.70;;;10.60;;
68076;SDS011;54866;53.458;14.540;2022-08-19T07:41:34;12.40;;;11.20;;
68076;SDS011;54866;53.458;14.540;2022-08-19T07:44:05;11.50;;;10.30;;
68076;SDS011;54866;53.458;14.540;2022-08-19T07:46:37;11.90;;;10.70;;
68076;SDS011;54866;53.458;14.540;2022-08-19T07:49:11;11.90;;;10.80;;
68076;SDS011;54866;53.458;14.540;2022-08-19T07:51:49;12.20;;;11.10;;
68076;SDS011;54866;53.458;14.540;2022-08-19T07:54:24;11.60;;;10.50;;
68076;SDS011;54866;53.458;14.540;2022-08-19T07:56:55;10.90;;;9.80;;
68076;SDS011;54866;53.458;14.540;2022-08-19T07:59:27;10.50;;;9.50;;
68076;SDS011;54866;53.458;14.540;2022-08-19T08:01:58;10.90;;;9.80;;
68076;SDS011;54866;53.458;14.540;2022-08-19T08:04:29;9.90;;;9.00;;
68076;SDS011;54866;53.458;14.540;2022-08-19T08:07:17;10.80;;;9.80;;
68076;SDS011;54866;53.458;14.540;2022-08-19T08:10:06;11.90;;;10.70;;
68076;SDS011;54866;53.458;14.540;2022-08-19T08:12:37;12.10;;;10.90;;
68076;SDS011;54866;53.458;14.540;2022-08-19T08:15:10;10.90;;;9.80;;
68076;SDS011;54866;53.458;14.540;2022-08-19T08:17:43;10.40;;;9.50;;
68076;SDS011;54866;53.458;14.540;2022-08-19T08:20:14;11.90;;;10.80;;
68076;SDS011;54866;53.458;14.540;2022-08-19T08:22:45;12.60;;;11.40;;
68076;SDS011;54866;53.458;14.540;2022-08-19T08:25:34;11.50;;;10.30;;
68076;SDS011;54866;53.458;14.540;2022-08-19T08:28:04;11.70;;;10.50;;
68076;SDS011;54866;53.458;14.540;2022-08-19T08:30:35;11.90;;;10.80;;
68076;SDS011;54866;53.458;14.540;2022-08-19T08:33:08;12.90;;;11.70;;
68076;SDS011;54866;53.458;14.540;2022-08-19T08:35:39;16.10;;;14.50;;
68076;SDS011;54866;53.458;14.540;2022-08-19T08:38:09;19.30;;;17.60;;
68076;SDS011;54866;53.458;14.540;2022-08-19T08:40:42;24.70;;;22.10;;
68076;SDS011;54866;53.458;14.540;2022-08-19T08:43:21;29.20;;;26.20;;
68076;SDS011;54866;53.458;14.540;2022-08-19T08:46:05;28.40;;;25.40;;
68076;SDS011;54866;53.458;14.540;2022-08-19T08:48:41;26.20;;;23.50;;
68076;SDS011;54866;53.458;14.540;2022-08-19T08:51:17;24.30;;;21.50;;
68076;SDS011;54866;53.458;14.540;2022-08-19T08:53:52;27.10;;;21.00;;
68076;SDS011;54866;53.458;14.540;2022-08-19T08:56:23;20.80;;;17.70;;
68076;SDS011;54866;53.458;14.540;2022-08-19T08:58:56;23.70;;;19.40;;
68076;SDS011;54866;53.458;14.540;2022-08-19T09:01:30;23.20;;;20.50;;
68076;SDS011;54866;53.458;14.540;2022-08-19T09:04:00;19.90;;;17.00;;
68076;SDS011;54866;53.458;14.540;2022-08-19T09:06:36;20.30;;;17.10;;
68076;SDS011;54866;53.458;14.540;2022-08-19T09:09:15;18.80;;;16.30;;
68076;SDS011;54866;53.458;14.540;2022-08-19T09:11:56;25.00;;;20.10;;
68076;SDS011;54866;53.458;14.540;2022-08-19T09:14:36;30.40;;;23.50;;
68076;SDS011;54866;53.458;14.540;2022-08-19T09:17:14;27.10;;;22.10;;
68076;SDS011;54866;53.458;14.540;2022-08-19T09:19:50;24.00;;;21.40;;
68076;SDS011;54866;53.458;14.540;2022-08-19T09:22:22;22.10;;;19.80;;
68076;SDS011;54866;53.458;14.540;2022-08-19T09:24:53;20.90;;;18.60;;
68076;SDS011;54866;53.458;14.540;2022-08-19T09:27:24;26.00;;;19.60;;
68076;SDS011;54866;53.458;14.540;2022-08-19T09:29:55;21.10;;;18.50;;
68076;SDS011;54866;53.458;14.540;2022-08-19T09:32:26;33.90;;;27.70;;
68076;SDS011;54866;53.458;14.540;2022-08-19T09:34:56;19.60;;;17.30;;
68076;SDS011;54866;53.458;14.540;2022-08-19T09:37:28;17.70;;;15.60;;
68076;SDS011;54866;53.458;14.540;2022-08-19T09:39:58;18.60;;;15.40;;
68076;SDS011;54866;53.458;14.540;2022-08-19T09:42:29;18.20;;;16.40;;
68076;SDS011;54866;53.458;14.540;2022-08-19T09:45:00;18.60;;;16.80;;
68076;SDS011;54866;53.458;14.540;2022-08-19T09:47:30;17.50;;;15.70;;
68076;SDS011;54866;53.458;14.540;2022-08-19T09:50:03;17.30;;;15.60;;
68076;SDS011;54866;53.458;14.540;2022-08-19T09:52:34;15.70;;;14.10;;
68076;SDS011;54866;53.458;14.540;2022-08-19T09:55:05;15.40;;;14.00;;
68076;SDS011;54866;53.458;14.540;2022-08-19T09:57:37;13.60;;;12.20;;
68076;SDS011;54866;53.458;14.540;2022-08-19T10:00:08;13.80;;;12.50;;
68076;SDS011;54866;53.458;14.540;2022-08-19T10:02:39;13.60;;;12.40;;
68076;SDS011;54866;53.458;14.540;2022-08-19T10:05:09;13.40;;;12.20;;
68076;SDS011;54866;53.458;14.540;2022-08-19T10:07:56;14.10;;;12.70;;
68076;SDS011;54866;53.458;14.540;2022-08-19T10:10:28;12.90;;;11.60;;
68076;SDS011;54866;53.458;14.540;2022-08-19T10:13:03;12.70;;;11.40;;
68076;SDS011;54866;53.458;14.540;2022-08-19T10:15:34;12.60;;;11.30;;
68076;SDS011;54866;53.458;14.540;2022-08-19T10:18:06;13.50;;;12.40;;
68076;SDS011;54866;53.458;14.540;2022-08-19T10:20:36;13.10;;;12.00;;
68076;SDS011;54866;53.458;14.540;2022-08-19T10:23:08;13.60;;;12.50;;
68076;SDS011;54866;53.458;14.540;2022-08-19T10:25:38;14.30;;;13.00;;
68076;SDS011;54866;53.458;14.540;2022-08-19T10:28:09;13.90;;;12.60;;
68076;SDS011;54866;53.458;14.540;2022-08-19T10:30:39;14.40;;;13.10;;
68076;SDS011;54866;53.458;14.540;2022-08-19T10:33:09;14.80;;;13.60;;
68076;SDS011;54866;53.458;14.540;2022-08-19T10:35:40;13.90;;;12.50;;
68076;SDS011;54866;53.458;14.540;2022-08-19T10:38:11;15.00;;;13.60;;
68076;SDS011;54866;53.458;14.540;2022-08-19T10:40:41;14.40;;;13.10;;
68076;SDS011;54866;53.458;14.540;2022-08-19T10:43:11;15.50;;;14.20;;
68076;SDS011;54866;53.458;14.540;2022-08-19T10:45:41;15.20;;;13.90;;
68076;SDS011;54866;53.458;14.540;2022-08-19T10:48:17;14.20;;;13.10;;
68076;SDS011;54866;53.458;14.540;2022-08-19T10:50:46;15.10;;;13.80;;
68076;SDS011;54866;53.458;14.540;2022-08-19T10:53:34;14.70;;;13.40;;
68076;SDS011;54866;53.458;14.540;2022-08-19T10:56:05;14.20;;;12.80;;
68076;SDS011;54866;53.458;14.540;2022-08-19T10:58:52;14.60;;;13.40;;
68076;SDS011;54866;53.458;14.540;2022-08-19T11:01:23;14.30;;;13.10;;
68076;SDS011;54866;53.458;14.540;2022-08-19T11:03:56;14.40;;;13.20;;
68076;SDS011;54866;53.458;14.540;2022-08-19T11:06:27;14.20;;;12.90;;
68076;SDS011;54866;53.458;14.540;2022-08-19T11:08:58;15.00;;;13.40;;
68076;SDS011;54866;53.458;14.540;2022-08-19T11:11:28;15.40;;;14.10;;
68076;SDS011;54866;53.458;14.540;2022-08-19T11:13:59;16.20;;;14.70;;
68076;SDS011;54866;53.458;14.540;2022-08-19T11:16:30;19.00;;;17.30;;
68076;SDS011;54866;53.458;14.540;2022-08-19T11:19:00;20.30;;;17.80;;
68076;SDS011;54866;53.458;14.540;2022-08-19T11:21:31;21.30;;;19.20;;
68076;SDS011;54866;53.458;14.540;2022-08-19T11:24:03;24.40;;;21.90;;
68076;SDS011;54866;53.458;14.540;2022-08-19T11:26:36;24.30;;;22.00;;
68076;SDS011;54866;53.458;14.540;2022-08-19T11:29:09;26.60;;;24.00;;
68076;SDS011;54866;53.458;14.540;2022-08-19T11:31:41;24.00;;;21.70;;
68076;SDS011;54866;53.458;14.540;2022-08-19T11:34:14;22.70;;;20.60;;
68076;SDS011;54866;53.458;14.540;2022-08-19T11:36:46;21.70;;;19.80;;
68076;SDS011;54866;53.458;14.540;2022-08-19T11:39:19;22.10;;;20.10;;
68076;SDS011;54866;53.458;14.540;2022-08-19T11:41:50;20.30;;;18.50;;
68076;SDS011;54866;53.458;14.540;2022-08-19T11:44:20;19.30;;;17.60;;
68076;SDS011;54866;53.458;14.540;2022-08-19T11:46:50;18.00;;;16.40;;
68076;SDS011;54866;53.458;14.540;2022-08-19T11:49:21;16.60;;;15.20;;
68076;SDS011;54866;53.458;14.540;2022-08-19T11:51:52;17.00;;;15.50;;
68076;SDS011;54866;53.458;14.540;2022-08-19T11:54:22;16.30;;;14.90;;
68076;SDS011;54866;53.458;14.540;2022-08-19T11:56:52;15.90;;;14.40;;
68076;SDS011;54866;53.458;14.540;2022-08-19T11:59:23;14.90;;;13.40;;
68076;SDS011;54866;53.458;14.540;2022-08-19T12:01:53;14.60;;;13.20;;
68076;SDS011;54866;53.458;14.540;2022-08-19T12:04:24;13.40;;;12.20;;
68076;SDS011;54866;53.458;14.540;2022-08-19T12:06:55;14.10;;;12.90;;
68076;SDS011;54866;53.458;14.540;2022-08-19T12:09:25;13.60;;;12.50;;
68076;SDS011;54866;53.458;14.540;2022-08-19T12:11:55;13.70;;;12.60;;
68076;SDS011;54866;53.458;14.540;2022-08-19T12:14:28;13.00;;;12.00;;
68076;SDS011;54866;53.458;14.540;2022-08-19T12:16:58;13.50;;;12.40;;
68076;SDS011;54866;53.458;14.540;2022-08-19T12:19:31;14.10;;;12.80;;
68076;SDS011;54866;53.458;14.540;2022-08-19T12:22:02;15.20;;;13.80;;
68076;SDS011;54866;53.458;14.540;2022-08-19T12:24:34;17.10;;;15.70;;
68076;SDS011;54866;53.458;14.540;2022-08-19T12:27:04;17.80;;;16.10;;
68076;SDS011;54866;53.458;14.540;2022-08-19T12:29:35;16.30;;;15.00;;
68076;SDS011;54866;53.458;14.540;2022-08-19T12:32:05;14.80;;;13.60;;
68076;SDS011;54866;53.458;14.540;2022-08-19T12:34:35;14.60;;;13.30;;
68076;SDS011;54866;53.458;14.540;2022-08-19T12:37:07;15.10;;;13.70;;
68076;SDS011;54866;53.458;14.540;2022-08-19T12:39:38;16.00;;;14.60;;
68076;SDS011;54866;53.458;14.540;2022-08-19T12:42:10;16.20;;;14.80;;
68076;SDS011;54866;53.458;14.540;2022-08-19T12:47:11;14.60;;;13.30;;
68076;SDS011;54866;53.458;14.540;2022-08-19T12:49:42;14.40;;;13.10;;
68076;SDS011;54866;53.458;14.540;2022-08-19T12:52:14;14.10;;;12.90;;
68076;SDS011;54866;53.458;14.540;2022-08-19T12:54:47;13.40;;;12.30;;
68076;SDS011;54866;53.458;14.540;2022-08-19T12:57:18;12.90;;;11.70;;
68076;SDS011;54866;53.458;14.540;2022-08-19T12:59:51;13.40;;;12.40;;
68076;SDS011;54866;53.458;14.540;2022-08-19T13:02:21;13.90;;;12.60;;
68076;SDS011;54866;53.458;14.540;2022-08-19T13:04:53;12.60;;;11.60;;
68076;SDS011;54866;53.458;14.540;2022-08-19T13:07:25;13.10;;;11.90;;
68076;SDS011;54866;53.458;14.540;2022-08-19T13:09:55;10.80;;;10.00;;
68076;SDS011;54866;53.458;14.540;2022-08-19T13:12:26;11.60;;;10.60;;
68076;SDS011;54866;53.458;14.540;2022-08-19T13:14:57;12.90;;;11.60;;
68076;SDS011;54866;53.458;14.540;2022-08-19T13:17:28;12.10;;;11.20;;
68076;SDS011;54866;53.458;14.540;2022-08-19T13:19:58;11.60;;;10.50;;
68076;SDS011;54866;53.458;14.540;2022-08-19T13:22:29;12.10;;;11.10;;
68076;SDS011;54866;53.458;14.540;2022-08-19T13:24:59;11.50;;;10.40;;
68076;SDS011;54866;53.458;14.540;2022-08-19T13:27:30;11.80;;;10.80;;
68076;SDS011;54866;53.458;14.540;2022-08-19T13:30:02;12.40;;;11.30;;
68076;SDS011;54866;53.458;14.540;2022-08-19T13:32:51;12.40;;;11.20;;
68076;SDS011;54866;53.458;14.540;2022-08-19T13:35:41;12.60;;;11.40;;
68076;SDS011;54866;53.458;14.540;2022-08-19T13:38:14;11.20;;;10.30;;
68076;SDS011;54866;53.458;14.540;2022-08-19T13:40:48;10.50;;;9.70;;
68076;SDS011;54866;53.458;14.540;2022-08-19T13:43:20;12.50;;;11.40;;
68076;SDS011;54866;53.458;14.540;2022-08-19T13:45:54;12.80;;;11.60;;
68076;SDS011;54866;53.458;14.540;2022-08-19T13:48:25;10.60;;;9.80;;
68076;SDS011;54866;53.458;14.540;2022-08-19T13:50:56;11.20;;;10.30;;
68076;SDS011;54866;53.458;14.540;2022-08-19T13:53:26;12.00;;;11.00;;
68076;SDS011;54866;53.458;14.540;2022-08-19T13:55:57;11.60;;;10.70;;
68076;SDS011;54866;53.458;14.540;2022-08-19T13:58:27;11.50;;;10.60;;
68076;SDS011;54866;53.458;14.540;2022-08-19T14:00:58;12.00;;;11.00;;
68076;SDS011;54866;53.458;14.540;2022-08-19T14:03:28;11.50;;;10.40;;
68076;SDS011;54866;53.458;14.540;2022-08-19T14:05:59;11.30;;;10.40;;
68076;SDS011;54866;53.458;14.540;2022-08-19T14:08:30;11.60;;;10.70;;
68076;SDS011;54866;53.458;14.540;2022-08-19T14:11:01;11.80;;;10.80;;
68076;SDS011;54866;53.458;14.540;2022-08-19T14:13:31;11.60;;;10.70;;
68076;SDS011;54866;53.458;14.540;2022-08-19T14:16:01;11.50;;;10.70;;
68076;SDS011;54866;53.458;14.540;2022-08-19T14:18:38;11.60;;;10.60;;
68076;SDS011;54866;53.458;14.540;2022-08-19T14:21:13;12.50;;;11.10;;
68076;SDS011;54866;53.458;14.540;2022-08-19T14:23:45;11.50;;;10.70;;
68076;SDS011;54866;53.458;14.540;2022-08-19T14:26:16;12.30;;;11.20;;
68076;SDS011;54866;53.458;14.540;2022-08-19T14:28:48;11.80;;;10.90;;
68076;SDS011;54866;53.458;14.540;2022-08-19T14:31:19;12.30;;;11.10;;
68076;SDS011;54866;53.458;14.540;2022-08-19T14:33:50;11.40;;;10.40;;
68076;SDS011;54866;53.458;14.540;2022-08-19T14:36:20;11.20;;;10.30;;
68076;SDS011;54866;53.458;14.540;2022-08-19T14:38:50;11.80;;;10.80;;
68076;SDS011;54866;53.458;14.540;2022-08-19T14:41:20;12.00;;;11.10;;
68076;SDS011;54866;53.458;14.540;2022-08-19T14:43:51;12.50;;;11.50;;